Terminal Aerodrome Forecast
Issued by NWS

Home | Current Version | Previous Version | Text Only | Print | Product List | Glossary On
Versions: 1 2 3 4 5 6 7 8 9 10 11 12
000
FTAK31 PAJN 222300
TAFAKT
TAF
PAKT 222335Z 2300/2324 33007KT P6SM SCT150
     FM230600 VRB04KT P6SM SCT050 BKN100
     FM231400 VRB04KT P6SM VCSH SCT015 SCT030 OVC060
     FM231700 31006KT P6SM VCSH SCT025 OVC050
     FM232100 33008KT P6SM VCSH BKN050 OVC100
      AMD LTD TO CLD VIS AND WIND 2306/2315=

USA.gov is the U.S. government's official web portal to all federal, state and local government web resources and services.